Hotevilla, Arizona
Current Conditions -  °F | °C
As of 10:56 AM on Friday 21 Nov 2014 (Local Time) from KINW Reporting Station
Clear Clear  
Wind Chill:   Ceiling: Unl
Heat Index:   Visibility: 10mi
Dew Point: -8°   Wind: 3mph
Humidity: 30%   Direction: NA
Pressure: 30.05"   Gusts: NA
Location:  35.93°N, 110.67°W
Report Text: KINW 211756Z AUTO VRB03KT 10SM CLR 09/M08 A3005 RMK AO2 SLP162 T00891078 10089 20006 50004
Loading
Personal Weather Stations






























Interactive Weather Map New forecast layout! Learn more

10-Day Weather Forecast

Advertisements
Track Severe Weather on mobile